Adrian, Missouri
Current Conditions -  °F | °C
As of 11:55 PM on Thursday 30 Oct 2014 (Local Time) from KGLY Reporting Station
Clear Clear  
Wind Chill: 52°   Ceiling: Unl
Heat Index: 52°   Visibility: 10mi
Dew Point: 41°   Wind: 12mph
Humidity: 67%   Direction: 340°NNW
Pressure: 30.14"   Gusts: 18mph
Location:  38.4°N, 94.35°W
Report Text: KGLY 310455Z AUTO 34010G16KT 10SM CLR 11/05 A3014 RMK AO2
Loading
Personal Weather Stations






























Interactive Weather Map New forecast layout! Learn more

10-Day Weather Forecast

Advertisements
Track Severe Weather on mobile